WetterOnline ( https://www.wetteronline.de )

Wetter aktuell Lieth

Aktuelles Wetter: Heide/Elpersbüttel (5m)

6-stündlich | Neueste Meldungen
Ortszeit Temperatur Wetter
Mi, 26.02. 13:00 5.4° C leicht bewölkt
Mi, 26.02. 7:00 3.2° C wolkig
Mi, 26.02. 1:00 4.2° C bewölkt
Di, 25.02. 19:00 4.3° C leichter Regen
Di, 25.02. 13:00 4.8° C bewölkt
Di, 25.02. 7:00 5.8° C bedeckt
Di, 25.02. 1:00 8.5° C Sprühregen
Mo, 24.02. 19:00 1.1° C leichter Regen
Ortszeit Temperatur Wetter
Mi, 26.02. 17:30 3.9° C wolkenlos
Mi, 26.02. 17:20 3.9° C wolkenlos
Mi, 26.02. 17:10 4.3° C fast wolkenlos
Mi, 26.02. 17:00 4.5° C wolkig
Mi, 26.02. 16:50 4.5° C wolkig
Mi, 26.02. 16:40 4.8° C bewölkt
Mi, 26.02. 16:30 5.2° C bewölkt
Mi, 26.02. 16:00 5.6° C wolkig
Mi, 26.02. 15:30 5.7° C leicht bewölkt
Mi, 26.02. 15:00 5.9° C leicht bewölkt
Mi, 26.02. 14:30 6.3° C wolkig
Ortszeit Relative Feuchte Sichtweite
Mi, 26.02. 13:00 80% >70 km
Mi, 26.02. 7:00 97% 19 km
Mi, 26.02. 1:00 89% 45 km
Di, 25.02. 19:00 90% 16 km
Di, 25.02. 13:00 89% 26 km
Di, 25.02. 7:00 84% 22 km
Di, 25.02. 1:00 95% 19 km
Mo, 24.02. 19:00 100% 9 km
Ortszeit Relative Feuchte Sichtweite
Mi, 26.02. 17:30 79% 65 km
Mi, 26.02. 17:20 79% -
Mi, 26.02. 17:10 79% -
Mi, 26.02. 17:00 76% >70 km
Mi, 26.02. 16:50 76% -
Mi, 26.02. 16:40 76% -
Mi, 26.02. 16:30 80% >70 km
Mi, 26.02. 16:00 79% 60 km
Mi, 26.02. 15:30 73% 60 km
Mi, 26.02. 15:00 73% 60 km
Mi, 26.02. 14:30 73% 60 km
Ortszeit Niederschlagsmenge Niederschlagsart
Mi, 26.02. 13:00 1 l/m2 in 6 Std. Regen
Mi, 26.02. 7:00 3 l/m2 in 12 Std. Regen
Mi, 26.02. 1:00 3 l/m2 in 6 Std. Schneeschauer
Di, 25.02. 19:00 2 l/m2 in 12 Std. Schnee, Regen
Di, 25.02. 13:00 0.4 l/m2 in 6 Std. Regen
Di, 25.02. 7:00 6 l/m2 in 12 Std. Regen
Di, 25.02. 1:00 6 l/m2 in 6 Std. Regen
Mo, 24.02. 19:00 12 l/m2 in 12 Std. Schnee, Regen
Ortszeit Niederschlagsmenge Niederschlagsart
Mi, 26.02. 17:30 0.0 l/m2 in 1 Std. -
Mi, 26.02. 17:20 keine Meldung -
Mi, 26.02. 17:10 keine Meldung -
Mi, 26.02. 17:00 0.1 l/m2 in 1 Std. Regen
Mi, 26.02. 16:50 keine Meldung -
Mi, 26.02. 16:40 keine Meldung -
Mi, 26.02. 16:30 0.1 l/m2 in 1 Std. Schneeregen
Mi, 26.02. 16:00 0.0 l/m2 in 1 Std. -
Mi, 26.02. 15:30 0.0 l/m2 in 1 Std. -
Mi, 26.02. 15:00 0.0 l/m2 in 1 Std. -
Mi, 26.02. 14:30 0.0 l/m2 in 1 Std. -
Ortszeit Stärke Spitze Richtung
km/h Bft. km/h Grad Sektor
Mi, 26.02. 13:00 26 4 33 290° W
Mi, 26.02. 7:00 19 3 43 240° SW
Mi, 26.02. 1:00 29 5 58 260° W
Di, 25.02. 19:00 36 5 86 270° W
Di, 25.02. 13:00 65 8 90 250° W
Di, 25.02. 7:00 50 6 76 240° SW
Di, 25.02. 1:00 41 6 57 250° W
Mo, 24.02. 19:00 9 2 39 120° SO
Ortszeit Stärke Spitze Richtung
km/h Bft. km/h Grad Sektor
Mi, 26.02. 17:30 18 3 32 320° NW
Mi, 26.02. 17:20 18 3 - 320° NW
Mi, 26.02. 17:10 18 3 - 320° NW
Mi, 26.02. 17:00 22 4 31 320° NW
Mi, 26.02. 16:50 22 4 - 320° NW
Mi, 26.02. 16:40 22 4 - 320° NW
Mi, 26.02. 16:30 22 4 32 320° NW
Mi, 26.02. 16:00 24 4 39 310° NW
Mi, 26.02. 15:30 29 5 40 300° NW
Mi, 26.02. 15:00 29 5 40 300° NW
Mi, 26.02. 14:30 29 5 40 300° NW
Ortszeit Untergrenze Bedeckung Gattung
total tief tief mittel hoch
Mi, 26.02. 13:00 840 m 2/8 3/8 - - -
Mi, 26.02. 7:00 1140 m 5/8 6/8 - - -
Mi, 26.02. 1:00 960 m 7/8 7/8 - - -
Di, 25.02. 19:00 90 m 7/8 7/8 - - -
Di, 25.02. 13:00 60 m 7/8 7/8 - - -
Di, 25.02. 7:00 60 m 8/8 8/8 - - -
Di, 25.02. 1:00 60 m 7/8 7/8 - - -
Mo, 24.02. 19:00 180 m 7/8 8/8 - - -
Ortszeit Bedeckungsgrad in Achtel und Wolkenuntergrenze
Mi, 26.02. 17:30 keine Wolken
Mi, 26.02. 17:20 keine Wolken
Mi, 26.02. 17:10 1(810m)
Mi, 26.02. 17:00 1(600m) 6(810m)
Mi, 26.02. 16:50 1(600m) 6(810m)
Mi, 26.02. 16:40 2(600m) 7(810m)
Mi, 26.02. 16:30 3(570m) 6(750m) 7(1080m)
Mi, 26.02. 16:00 4(540m) 5(810m) 6(930m)
Mi, 26.02. 15:30 2(750m) 3(840m)
Mi, 26.02. 15:00 1(750m) 3(990m)
Mi, 26.02. 14:30 3(720m) 5(930m) 5(1140m)
Ortszeit Luftdruck NN (hPa) Tendenz (hPa in 3 Std.)
Mi, 26.02. 13:00 994 + 2,0
Mi, 26.02. 7:00 990 + 0,3
Mi, 26.02. 1:00 990 - 0,7
Di, 25.02. 19:00 992 + 0,7
Di, 25.02. 13:00 991 - 0,8
Di, 25.02. 7:00 993 - 0,6
Di, 25.02. 1:00 994 - 1,3
Mo, 24.02. 19:00 999 - 7,5
Ortszeit Luftdruck NN (hPa) Tendenz (hPa in 3 Std.)
Mi, 26.02. 17:30 997 + 2,5
Mi, 26.02. 17:20 997 keine Meldung
Mi, 26.02. 17:10 997 keine Meldung
Mi, 26.02. 17:00 997 + 2,5
Mi, 26.02. 16:50 997 keine Meldung
Mi, 26.02. 16:40 996 keine Meldung
Mi, 26.02. 16:30 996 + 2,2
Mi, 26.02. 16:00 996 + 2,1
Mi, 26.02. 15:30 995 + 2,1
Mi, 26.02. 15:00 995 + 1,9
Mi, 26.02. 14:30 995 + 2,0
Ortszeit Schneehöhe (cm)
Mi, 26.02. 13:00 0
Mi, 26.02. 7:00 0
Mi, 26.02. 1:00 0
Di, 25.02. 19:00 0
Di, 25.02. 13:00 0
Di, 25.02. 7:00 0
Di, 25.02. 1:00 0
Mo, 24.02. 19:00 0
Ortszeit Schneehöhe (cm)
Mi, 26.02. 17:30 0
Mi, 26.02. 17:20 0
Mi, 26.02. 17:10 0
Mi, 26.02. 17:00 0
Mi, 26.02. 16:50 0
Mi, 26.02. 16:40 0
Mi, 26.02. 16:30 0
Mi, 26.02. 16:00 0
Mi, 26.02. 15:30 0
Mi, 26.02. 15:00 0
Mi, 26.02. 14:30 0
Link zu dieser Seite / Seite empfehlen

Das Wetter in ...